Holmen, WI (54636)

4:17 PM CDT on September 04, 2015 (GMT -0500)
APRSWXNET | | Change Station
CLOSE
Current Station
Personal Weather Station
Location: Onalaska, WI
Elevation: 682 ft
Nearby Weather Stations

Elev 682 ft 43.88 °N, 91.23 °W | Updated 23 minutes ago

Overcast
Overcast
90 °F
Feels Like 99 °F
N
2
Wind Variable Wind from South
Gusts 6.0 mph

Today
High -- | Low -- °F
--% Chance of Precip.
Yesterday
High -- | Low -- °F
Precip. -- in
6:31 AM 7:35 PM
Waning Gibbous, 56% visible
Pressure 29.91 in
Visibility 10.0 miles
Clouds Mostly Cloudy 4100 ft
Mostly Cloudy 5000 ft
Heat Index 99 °F
Dew Point 73 °F
Humidity 58%
Rainfall in
Snow Depth Not available.
UV 2 out of 12
Pollen 9.50 out of 12
Air Quality Not available.
Flu Activity Not available.
METAR KLSE 042053Z 13006KT 10SM BKN041 BKN050 30/22 A2994 RMK AO2 SLP129 T03000217 58010
Pressure 29.91 in
Visibility 10.0 miles
Clouds Mostly Cloudy 4100 ft
Mostly Cloudy 5000 ft
Heat Index 99 °F
Dew Point 73 °F
Humidity 58%
Rainfall in
Snow Depth Not available.
UV 2 out of 12
Pollen 9.50 out of 12
Air Quality Not available.
Flu Activity Not available.
METAR KLSE 042053Z 13006KT 10SM BKN041 BKN050 30/22 A2994 RMK AO2 SLP129 T03000217 58010

10-Day Weather Forecast

×

Almanac

Astronomy

Sep. 04, 2015 Rise Set
Actual Time
Civil Twilight
Nautical Twilight
Astronomical Twilight
Moon
Length of Visible Light
Length of Day
Tomorrow will be .
, % of the Moon is Illuminated

Today's Extremes

State Highs State Lows

Community

WunderPhotos

Upload Photos

1,852,296 photos uploaded!

WunderBlogs® & News

Nearby

Air Quality

  Air Quality AQ Index Pollutant
Not available.

Snow Depth

Station Depth Elevation

Earthquake Activity

City Distance Mag. Time & Date
Minimum magnitude displayed is 2.5.

Coastal Water Temperatures

Place Temperature

Stations

Nearby Weather Stations

Station Location Temp. Windchill Dew Point Humidity Wind Precip. Elev Updated Type